Terminal Aerodrome Forecast
Issued by NWS

Home | Current Version | Previous Version | Text Only | Print | Product List | Glossary On
Versions: 1 2 3 4 5 6 7 8 9 10 11 12 13 14 15 16 17 18
000
FTUS42 KTBW 222300 CCA
TAFPGD
TAF COR
KPGD 222342Z 2300/2324 19006KT P6SM VCTS FEW005 SCT025CB BKN080
      TEMPO 2300/2302 VRB15G25KT 4SM TSRA SCT015 BKN025CB
     FM230600 14004KT P6SM VCSH SCT020 BKN040
     FM231200 VRB03KT P6SM VCSH SCT025 BKN080
     FM231500 VRB06KT P6SM VCTS SCT035CB BKN100=

USA.gov is the U.S. government's official web portal to all federal, state and local government web resources and services.